createdAt,value
2023-02-18T00:01:34.617Z,25.3
2023-02-18T00:07:12.943Z,28.1
2023-02-18T00:12:34.624Z,30
2023-02-18T00:18:11.776Z,28.6
2023-02-18T00:23:18.066Z,26.9
2023-02-18T00:28:55.124Z,25.2
2023-02-18T00:34:16.739Z,24.5
2023-02-18T00:39:53.301Z,26.8
2023-02-18T00:45:30.641Z,29.1
2023-02-18T00:51:08.391Z,30.3
2023-02-18T00:56:45.428Z,27.5
2023-02-18T01:02:22.137Z,26.6
2023-02-18T01:07:59.350Z,24.8
2023-02-18T01:13:37.715Z,24.2
2023-02-18T01:19:14.528Z,28.2
2023-02-18T01:24:51.932Z,29.8
2023-02-18T01:30:28.873Z,29.1
2023-02-18T01:36:07.072Z,26.9
2023-02-18T01:41:44.438Z,25.2
2023-02-18T01:47:21.882Z,24.6
2023-02-18T01:52:43.425Z,23.7
2023-02-18T01:58:22.079Z,23.9
2023-02-18T02:03:59.553Z,27.9
2023-02-18T02:09:36.125Z,29.7
2023-02-18T02:15:12.948Z,29.7
2023-02-18T02:20:49.833Z,27.6
2023-02-18T02:26:26.587Z,29.9
2023-02-18T02:32:04.276Z,27.6
2023-02-18T02:37:41.368Z,26.6
2023-02-18T02:43:19.078Z,24.8
2023-02-18T02:48:57.475Z,24.4
2023-02-18T02:54:34.636Z,23.5
2023-02-18T03:00:12.455Z,26.8
2023-02-18T03:05:49.665Z,28.9
2023-02-18T03:11:27.310Z,30.3
2023-02-18T03:17:05.178Z,27.6
2023-02-18T03:22:42.552Z,26.6
2023-02-18T03:28:20.888Z,24.8
2023-02-18T03:33:58.715Z,24.2
2023-02-18T03:39:35.662Z,28.1
2023-02-18T03:44:57.190Z,29.6
2023-02-18T03:50:18.210Z,29.6
2023-02-18T03:55:55.748Z,27.1
2023-02-18T04:01:32.438Z,25.4
2023-02-18T04:07:10.630Z,24.6
2023-02-18T04:12:47.357Z,26.4
2023-02-18T04:18:24.432Z,28.9
2023-02-18T04:24:01.657Z,30.3
2023-02-18T04:29:24.318Z,27.4
2023-02-18T04:35:04.689Z,26.6
2023-02-18T04:40:43.357Z,24.8
2023-02-18T04:46:20.674Z,24.3
2023-02-18T04:51:58.269Z,27.9
2023-02-18T04:57:34.635Z,23.5
2023-02-18T05:08:17.913Z,29.7
2023-02-18T05:13:39.273Z,29.1
2023-02-18T05:19:17.383Z,26.9
2023-02-18T05:24:40.698Z,25.3
2023-02-18T05:30:17.616Z,24.6
2023-02-18T05:35:55.998Z,23.6
2023-02-18T05:41:33.579Z,23.6
2023-02-18T05:46:41.208Z,27.9
2023-02-18T05:52:19.126Z,29.7
2023-02-18T05:57:55.147Z,29
2023-02-18T06:03:16.859Z,26.8
2023-02-18T06:08:55.767Z,25.1
2023-02-18T06:14:17.597Z,24.4
2023-02-18T06:19:55.115Z,23.6
2023-02-18T06:25:32.509Z,24.3
2023-02-18T06:31:10.985Z,28.3
2023-02-18T06:36:48.957Z,30
2023-02-18T06:42:27.405Z,28.3
2023-02-18T06:48:04.611Z,26.7
2023-02-18T06:53:44.258Z,24.8
2023-02-18T06:58:50.896Z,24.3
2023-02-18T07:04:28.516Z,27.4
2023-02-18T07:10:06.306Z,29.8
2023-02-18T07:15:43.675Z,29.3
2023-02-18T07:21:20.720Z,26.9
2023-02-18T07:26:58.567Z,25.2
2023-02-18T07:32:20.062Z,24.4
2023-02-18T07:37:57.139Z,23.6
2023-02-18T07:43:34.267Z,23.3
2023-02-18T07:49:11.694Z,27
2023-02-18T07:54:50.162Z,29.7
2023-02-18T08:00:27.883Z,26.6
2023-02-18T08:06:05.341Z,26.1
2023-02-18T08:11:52.277Z,25.8
2023-02-18T08:17:29.769Z,25.4
2023-02-18T08:23:07.100Z,27
2023-02-18T08:28:56.291Z,29.9
2023-02-18T08:34:34.867Z,26.9
2023-02-18T08:40:05.733Z,26.2
2023-02-18T08:45:42.216Z,25.9
2023-02-18T08:52:49.635Z,25.4
2023-02-18T09:03:52.208Z,30.1
2023-02-18T09:09:13.613Z,26.8
2023-02-18T09:14:50.128Z,26.1
2023-02-18T09:20:27.103Z,25.8
2023-02-18T09:26:04.761Z,25.5
2023-02-18T09:31:43.330Z,27.3
2023-02-18T09:37:38.486Z,30.3
2023-02-18T09:43:02.139Z,26.8
2023-02-18T09:48:42.309Z,26.2
2023-02-18T09:54:20.001Z,25.9
2023-02-18T09:59:59.311Z,25.6
2023-02-18T10:05:38.672Z,27.9
2023-02-18T10:11:17.005Z,30.3
2023-02-18T10:16:38.624Z,26.8
2023-02-18T10:22:21.068Z,26.2
2023-02-18T10:27:58.122Z,25.9
2023-02-18T10:33:20.758Z,25.7
2023-02-18T10:38:57.409Z,28.4
2023-02-18T10:44:18.454Z,29.6
2023-02-18T10:49:54.498Z,26.9
2023-02-18T10:55:32.548Z,26.3
2023-02-18T11:01:09.590Z,26.1
2023-02-18T11:06:47.628Z,25.8
2023-02-18T11:12:22.717Z,29
2023-02-18T11:17:43.849Z,28.4
2023-02-18T11:22:50.400Z,26.8
2023-02-18T11:28:12.545Z,26.3
2023-02-18T11:33:35.092Z,26.1
2023-02-18T11:39:12.480Z,25.8
2023-02-18T11:44:34.708Z,28.8
2023-02-18T11:50:10.361Z,29.4
2023-02-18T11:55:32.055Z,26.9
2023-02-18T12:01:10.124Z,26.4
2023-02-18T12:06:17.077Z,26.1
2023-02-18T12:11:54.023Z,25.9
2023-02-18T12:17:33.997Z,27.6
2023-02-18T12:23:12.544Z,30.6
2023-02-18T12:28:50.139Z,27
2023-02-18T12:34:13.108Z,26.3
2023-02-18T12:39:52.600Z,26.1
2023-02-18T12:45:29.145Z,25.8
2023-02-18T12:51:06.609Z,25.9
2023-02-18T12:56:43.520Z,30.8
2023-02-18T13:01:49.633Z,27.3
2023-02-18T13:07:12.344Z,26.5
2023-02-18T13:12:33.761Z,26.2
2023-02-18T13:17:55.487Z,25.9
2023-02-18T13:23:34.572Z,25.8
2023-02-18T13:28:58.872Z,29.6
2023-02-18T13:34:37.463Z,28.1
2023-02-18T13:40:14.893Z,26.6
2023-02-18T13:45:51.800Z,26
2023-02-18T13:51:28.992Z,25.7
2023-02-18T13:57:05.930Z,25
2023-02-18T14:02:44.363Z,24.4
2023-02-18T14:08:21.700Z,29.4
2023-02-18T14:13:58.936Z,28
2023-02-18T14:19:36.174Z,25.9
2023-02-18T14:25:13.317Z,25.4
2023-02-18T14:30:51.858Z,25.3
2023-02-18T14:36:20.444Z,25
2023-02-18T14:41:57.903Z,24.8
2023-02-18T14:47:19.825Z,24.4
2023-02-18T14:52:56.110Z,24.3
2023-02-18T14:58:32.874Z,24
2023-02-18T15:04:11.395Z,23.8
2023-02-18T15:09:48.989Z,23.4
2023-02-18T15:15:12.450Z,23.2
2023-02-18T15:20:53.537Z,23
2023-02-18T15:26:31.902Z,22.8
2023-02-18T15:31:54.709Z,22.6
2023-02-18T15:37:33.031Z,22.4
2023-02-18T15:43:10.426Z,22.2
2023-02-18T15:48:49.888Z,22
2023-02-18T15:54:20.152Z,21.9
2023-02-18T15:59:58.621Z,21.7
2023-02-18T16:05:38.480Z,21.6
2023-02-18T16:10:44.929Z,21.4
2023-02-18T16:15:52.306Z,21.3
2023-02-18T16:21:27.733Z,21.2
2023-02-18T16:26:50.084Z,21.1
2023-02-18T16:32:28.552Z,20.9
2023-02-18T16:38:03.397Z,20.9
2023-02-18T16:43:41.861Z,20.8
2023-02-18T16:49:04.151Z,20.7
2023-02-18T16:54:43.772Z,20.6
2023-02-18T17:00:21.378Z,20.6
2023-02-18T17:06:15.889Z,20.4
2023-02-18T17:11:37.760Z,20.3
2023-02-18T17:17:16.188Z,19.8
2023-02-18T17:22:55.900Z,26.7
2023-02-18T17:28:33.697Z,29.4
2023-02-18T17:34:12.745Z,29.5
2023-02-18T17:39:52.650Z,26.3
2023-02-18T17:45:16.692Z,30
2023-02-18T17:50:55.988Z,26.9
2023-02-18T17:56:18.088Z,25.6
2023-02-18T18:01:40.531Z,29.3
2023-02-18T18:07:02.323Z,27.7
2023-02-18T18:12:39.332Z,26.3
2023-02-18T18:18:17.169Z,25.8
2023-02-18T18:23:54.794Z,25.4
2023-02-18T18:29:32.355Z,25.1
2023-02-18T18:35:08.764Z,27.3
2023-02-18T18:40:30.785Z,29.8
2023-02-18T18:45:52.866Z,27.3
2023-02-18T18:51:31.504Z,26.1
2023-02-18T18:57:10.591Z,25.7
2023-02-18T19:02:50.631Z,25.4
2023-02-18T19:08:28.328Z,25.1
2023-02-18T19:14:06.229Z,28.1
2023-02-18T19:19:43.090Z,30.2
2023-02-18T19:25:20.800Z,26.4
2023-02-18T19:30:59.030Z,25.5
2023-02-18T19:36:35.850Z,29.1
2023-02-18T19:42:13.012Z,27.4
2023-02-18T19:47:50.770Z,25.9
2023-02-18T19:53:28.226Z,26.4
2023-02-18T19:59:05.703Z,29.6
2023-02-18T20:04:28.514Z,26.7
2023-02-18T20:10:05.181Z,25.8
2023-02-18T20:15:43.092Z,25.3
2023-02-18T20:21:20.912Z,28.6
2023-02-18T20:33:04.204Z,25.9
2023-02-18T20:38:42.279Z,25.5
2023-02-18T20:44:44.867Z,25.2
2023-02-18T20:50:07.158Z,25.9
2023-02-18T20:55:44.723Z,28.9
2023-02-18T21:01:22.186Z,27.3
2023-02-18T21:07:01.696Z,25.9
2023-02-18T21:12:39.067Z,25.4
2023-02-18T21:18:16.721Z,28.4
2023-02-18T21:29:17.697Z,26
2023-02-18T21:40:32.711Z,25.2
2023-02-18T21:46:05.586Z,26.6
2023-02-18T21:51:44.237Z,29.4
2023-02-18T21:57:27.664Z,26.9
2023-02-18T22:03:24.073Z,25.8
2023-02-18T22:09:01.702Z,25.4
2023-02-18T22:14:22.777Z,27.7
2023-02-18T22:20:01.305Z,29.8
2023-02-18T22:25:38.904Z,31.1
2023-02-18T22:31:16.389Z,29.4
2023-02-18T22:36:56.838Z,26.7
2023-02-18T22:42:35.038Z,29.8
2023-02-18T22:48:12.018Z,31.2
2023-02-18T22:53:49.647Z,27.6
2023-02-18T22:59:26.234Z,26
2023-02-18T23:05:02.936Z,29.8
2023-02-18T23:10:25.228Z,31.3
2023-02-18T23:16:04.690Z,27.5
2023-02-18T23:21:25.865Z,26.4
2023-02-18T23:27:02.500Z,29.1
2023-02-18T23:32:40.757Z,31.1
2023-02-18T23:38:02.769Z,27.7
2023-02-18T23:43:40.564Z,26.4
2023-02-18T23:49:17.686Z,28.9
2023-02-18T23:54:54.717Z,31.1
